CheckWX is a tool to help pilots better visualize weather data.  It is not intended as a substitute for an official pre-flight weather briefing.

12:18:16 UTC

ENQC METAR
Troll C Platform Heliport
Norway
Current

28 mins ago

ENQC 041150Z AUTO 14013KT 9999NDV NCD 05/M04 Q1016 W///S5
Observed
Apr-4 @ 11:50 UTC
Wind
  • 140° at 13 KTS
Visibility
Cloud Levels
  • Clear skies
Temperature
C / 41°F
Dewpoint
-4°C / 25°F
Humidity
53%
Altimeter
30" Hg
Pressure
1015.92 hPa
Previous

58 mins ago

ENQC 041120Z AUTO 14012KT 9999NDV NCD 05/M03 Q1016 W///S5
Observed
Apr-4 @ 11:20 UTC
Wind
  • 140° at 12 KTS
Visibility
Cloud Levels
  • Clear skies
Temperature
C / 41°F
Dewpoint
-3°C / 27°F
Humidity
57%
Altimeter
30" Hg
Pressure
1015.92 hPa
Previous

1 hour ago

ENQC 041050Z AUTO 15010KT 9999NDV FEW025/// 04/M03 Q1016 W///S5
Observed
Apr-4 @ 10:50 UTC
Wind
  • 150° at 10 KTS
Visibility
Cloud Levels
  • Few at 2,500' AGL
Temperature
C / 39°F
Dewpoint
-3°C / 27°F
Humidity
61%
Altimeter
30" Hg
Pressure
1015.92 hPa